Time,TemperatureF,DewpointF,PressureIn,WindDirection,WindDirectionDegrees,WindSpeedMPH,WindSpeedGustMPH,Humidity,HourlyPrecipIn,Conditions,Clouds,dailyrainin,SoftwareType,DateUTC
2013-07-11 05:41:00,79.2,76.2,29.78,South,187,5.9,5.9,90,0.00,,---,0.03,VWS V12.08,2013-07-11 09:41:00,
2013-07-11 05:46:00,50.0,50.0,29.98,South,172,0.0,7.1,100,0.26,,---,0.21,VWS V12.08,2013-07-11 09:46:00,
2013-07-11 05:51:00,34.6,30.6,30.25,South,184,5.2,10.0,85,0.00,,---,0.00,VWS V12.08,2013-07-11 09:51:00,
2013-07-11 05:56:00,35.5,27.2,30.22,West,277,11.2,30.0,71,0.14,,---,0.01,VWS V12.08,2013-07-11 09:56:00,
2013-07-11 06:01:00,49.6,48.3,29.65,SE,124,5.3,15.3,95,0.00,,---,0.00,VWS V12.08,2013-07-11 10:01:00,
2013-07-11 06:06:00,39.2,31.7,30.29,WSW,245,4.7,9.6,74,0.00,,---,0.00,VWS V12.08,2013-07-11 10:06:00,
2013-07-11 06:11:00,36.8,36.8,30.18,North,354,0.0,7.7,100,0.55,,---,0.55,VWS V12.08,2013-07-11 10:11:00,
2013-07-11 06:16:00,41.4,39.5,30.53,North,10,5.1,13.7,93,0.00,,---,0.00,VWS V12.08,2013-07-11 10:16:00,
2013-07-11 06:21:00,39.6,38.9,30.20,NW,315,0.0,0.0,97,0.00,,---,0.00,VWS V12.08,2013-07-11 10:21:00,
2013-07-11 06:26:00,39.5,38.9,30.21,NW,315,0.0,15.0,98,0.00,,---,0.00,VWS V12.08,2013-07-11 10:26:00,
2013-07-11 06:31:00,37.2,32.8,30.42,NNE,18,3.2,9.1,84,0.00,,---,0.00,VWS V12.08,2013-07-11 10:31:00,
2013-07-11 06:36:00,40.6,36.2,30.42,North,352,2.8,6.8,84,0.11,,---,0.11,VWS V12.08,2013-07-11 10:36:00,
2013-07-11 06:41:00,40.8,35.9,29.94,WSW,242,3.4,9.1,83,0.00,,---,0.00,VWS V12.08,2013-07-11 10:41:00,
2013-07-11 06:46:00,42.0,38.4,30.18,SW,231,0.0,0.0,87,0.00,,---,0.00,VWS V12.08,2013-07-11 10:46:00,
2013-07-11 06:51:00,33.3,33.3,29.77,NNW,328,0.0,24.4,100,0.22,,---,0.22,VWS V12.08,2013-07-11 10:51:00,
2013-07-11 06:56:00,37.1,28.4,30.05,West,260,1.3,13.2,70,0.00,,---,0.00,VWS V12.08,2013-07-11 10:56:00,
2013-07-11 07:01:00,42.7,37.6,29.75,NW,307,9.3,16.6,82,0.00,,---,0.00,VWS V12.08,2013-07-11 11:01:00,
2013-07-11 07:06:00,44.2,38.1,29.74,WSW,245,8.7,14.3,79,0.00,,---,0.00,VWS V12.08,2013-07-11 11:06:00,
2013-07-11 07:11:00,44.6,38.8,29.74,WNW,287,11.2,18.6,80,0.00,,---,0.00,VWS V12.08,2013-07-11 11:11:00,
2013-07-11 07:16:00,46.3,38.0,29.72,WSW,253,14.3,21.3,73,0.00,,---,0.00,VWS V12.08,2013-07-11 11:16:00,
2013-07-11 07:21:00,78.0,75.9,29.82,SW,222,7.3,10.9,93,28.12,,---,0.08,VWS V12.08,2013-07-11 11:21:00,
2013-07-11 07:26:00,77.9,75.8,29.82,WSW,243,6.2,10.9,93,28.12,,---,0.08,VWS V12.08,2013-07-11 11:26:00,
2013-07-11 07:31:00,77.9,75.6,29.82,South,176,6.3,12.9,93,28.12,,---,0.08,VWS V12.08,2013-07-11 11:31:00,
2013-07-11 07:36:00,77.9,75.6,29.82,South,184,4.5,12.9,92,28.12,,---,0.08,VWS V12.08,2013-07-11 11:36:00,
2013-07-11 07:41:00,77.9,75.5,29.82,SSW,211,8.6,12.9,92,28.12,,---,0.08,VWS V12.08,2013-07-11 11:41:00,
2013-07-11 07:46:00,77.8,75.3,29.82,SW,218,5.7,12.9,92,28.12,,---,0.08,VWS V12.08,2013-07-11 11:46:00,
2013-07-11 07:51:00,78.0,75.5,29.82,West,277,3.5,12.9,92,28.12,,---,0.08,VWS V12.08,2013-07-11 11:51:00,
2013-07-11 07:56:00,78.1,75.5,29.82,West,266,6.8,12.9,92,28.12,,---,0.08,VWS V12.08,2013-07-11 11:56:00,
2013-07-11 08:01:00,78.1,75.4,29.82,NW,304,4.2,12.9,91,28.12,,---,0.08,VWS V12.08,2013-07-11 12:01:00,
2013-07-11 08:06:00,78.1,75.3,29.82,SSW,194,0.0,12.9,91,28.12,,---,0.08,VWS V12.08,2013-07-11 12:06:00,
2013-07-11 08:11:00,78.2,75.3,29.82,SW,217,0.0,12.9,91,28.12,,---,0.08,VWS V12.08,2013-07-11 12:11:00,
2013-07-11 08:16:00,78.1,75.2,29.82,WSW,253,6.6,12.9,91,28.12,,---,0.08,VWS V12.08,2013-07-11 12:16:00,
2013-07-11 08:21:00,78.2,75.3,29.82,WSW,250,7.1,12.9,91,28.12,,---,0.08,VWS V12.08,2013-07-11 12:21:00,
2013-07-11 08:26:00,78.2,75.3,29.82,SW,215,0.0,12.9,91,28.12,,---,0.08,VWS V12.08,2013-07-11 12:26:00,
2013-07-11 08:31:00,78.3,75.5,29.83,SSW,194,2.7,12.9,91,28.12,,---,0.08,VWS V12.08,2013-07-11 12:31:00,
2013-07-11 08:36:00,78.4,75.6,29.83,WSW,242,0.0,12.9,91,28.12,,---,0.08,VWS V12.08,2013-07-11 12:36:00,
2013-07-11 08:41:00,78.4,75.6,29.83,WNW,301,3.2,12.9,91,28.12,,---,0.08,VWS V12.08,2013-07-11 12:41:00,
2013-07-11 08:46:00,78.7,75.9,29.83,SW,235,6.6,12.9,91,28.12,,---,0.08,VWS V12.08,2013-07-11 12:46:00,
2013-07-11 08:51:00,78.7,75.8,29.83,SW,233,0.0,12.9,91,28.12,,---,0.08,VWS V12.08,2013-07-11 12:51:00,
2013-07-11 08:56:00,34.6,30.6,30.25,South,184,5.2,10.0,85,0.00,,---,0.00,VWS V12.08,2013-07-11 12:56:00,
2013-07-11 09:01:00,40.2,35.9,30.60,North,353,5.0,16.1,84,0.00,,---,0.00,VWS V12.08,2013-07-11 13:01:00,
2013-07-11 09:06:00,36.2,28.8,30.23,WNW,295,0.0,22.9,74,0.00,,---,0.00,VWS V12.08,2013-07-11 13:06:00,
2013-07-11 09:11:00,79.0,75.8,29.83,WSW,255,6.0,12.9,90,28.12,,---,0.08,VWS V12.08,2013-07-11 13:11:00,
2013-07-11 09:16:00,45.0,45.0,29.97,North,359,6.3,15.2,100,0.53,,---,0.27,VWS V12.08,2013-07-11 13:16:00,
2013-07-11 09:21:00,78.7,73.0,29.84,WNW,301,4.8,12.9,83,28.12,,---,0.08,VWS V12.08,2013-07-11 13:21:00,
2013-07-11 09:26:00,78.7,72.5,29.84,NNW,328,5.2,12.9,81,28.12,,---,0.08,VWS V12.08,2013-07-11 13:26:00,
2013-07-11 09:31:00,35.5,29.6,30.26,West,260,6.0,12.4,79,0.04,,---,0.03,VWS V12.08,2013-07-11 13:31:00,
2013-07-11 09:36:00,78.5,71.3,29.84,NW,325,6.0,12.9,79,28.12,,---,0.08,VWS V12.08,2013-07-11 13:36:00,
2013-07-11 09:41:00,42.7,37.6,29.75,NW,307,9.3,16.6,82,0.00,,---,0.00,VWS V12.08,2013-07-11 13:41:00,
2013-07-11 09:47:00,78.4,71.1,29.84,WNW,294,5.7,12.9,78,28.12,,---,0.08,VWS V12.08,2013-07-11 13:47:00,
2013-07-11 09:52:00,78.4,70.9,29.84,WNW,291,9.3,12.9,78,28.12,,---,0.08,VWS V12.08,2013-07-11 13:52:00,
2013-07-11 09:57:00,44.5,38.8,29.74,WSW,239,7.9,14.0,80,0.00,,---,0.00,VWS V12.08,2013-07-11 13:57:00,
2013-07-11 10:02:00,43.1,40.1,30.12,NNW,342,0.0,10.8,89,0.00,,---,0.00,VWS V12.08,2013-07-11 14:02:00,
2013-07-11 10:07:00,45.0,45.0,29.97,North,359,6.3,15.2,100,0.53,,---,0.27,VWS V12.08,2013-07-11 14:07:00,
2013-07-11 10:12:00,78.2,70.8,29.85,WNW,292,9.3,12.9,78,28.12,,---,0.08,VWS V12.08,2013-07-11 14:12:00,
2013-07-11 10:17:00,44.5,38.8,29.74,WSW,239,7.9,14.0,80,0.00,,---,0.00,VWS V12.08,2013-07-11 14:17:00,
2013-07-11 10:22:00,43.5,38.3,29.75,West,271,5.9,18.0,82,0.00,,---,0.00,VWS V12.08,2013-07-11 14:22:00,
2013-07-11 10:28:00,42.1,42.1,29.99,NNW,346,0.0,12.0,100,0.25,,---,0.25,VWS V12.08,2013-07-11 14:28:00,
2013-07-11 10:33:00,78.3,70.4,29.85,WNW,292,4.8,12.9,77,28.12,,---,0.08,VWS V12.08,2013-07-11 14:33:00,
2013-07-11 10:38:00,78.3,70.4,29.85,WNW,294,2.9,12.9,77,28.12,,---,0.08,VWS V12.08,2013-07-11 14:38:00,
2013-07-11 10:43:00,45.4,40.4,30.17,ENE,68,0.0,0.0,82,0.00,,---,0.00,VWS V12.08,2013-07-11 14:43:00,
2013-07-11 10:48:00,78.3,70.2,29.85,WNW,295,13.3,13.9,76,28.12,,---,0.08,VWS V12.08,2013-07-11 14:48:00,
2013-07-11 10:53:00,42.1,42.1,29.99,NNW,346,0.0,12.0,100,0.25,,---,0.25,VWS V12.08,2013-07-11 14:53:00,
2013-07-11 10:58:00,78.4,70.2,29.85,NW,319,9.1,13.9,76,28.12,,---,0.08,VWS V12.08,2013-07-11 14:58:00,
2013-07-11 11:03:00,42.0,38.4,30.18,SW,231,0.0,0.0,87,0.00,,---,0.00,VWS V12.08,2013-07-11 15:03:00,
2013-07-11 11:08:00,78.7,70.3,29.85,NW,315,8.8,13.9,76,28.12,,---,0.08,VWS V12.08,2013-07-11 15:08:00,
2013-07-11 11:13:00,78.8,70.4,29.85,NNW,333,7.0,0.0,76,28.12,,---,0.08,VWS V12.08,2013-07-11 15:13:00,
2013-07-11 11:18:00,38.9,31.6,30.29,WSW,252,5.8,18.4,75,0.04,,---,0.00,VWS V12.08,2013-07-11 15:18:00,
2013-07-11 11:23:00,78.9,70.5,29.85,WSW,252,3.5,13.9,76,28.12,,---,0.08,VWS V12.08,2013-07-11 15:23:00,
2013-07-11 11:28:00,79.0,70.4,29.84,NW,325,5.5,13.9,75,28.12,,---,0.08,VWS V12.08,2013-07-11 15:28:00,
2013-07-11 11:33:00,79.2,70.3,29.85,NNE,27,0.0,13.9,74,28.12,,---,0.08,VWS V12.08,2013-07-11 15:33:00,
2013-07-11 11:38:00,41.4,39.5,30.51,NNW,330,5.0,10.5,93,0.00,,---,0.00,VWS V12.08,2013-07-11 15:38:00,
2013-07-11 11:43:00,41.4,39.5,30.51,NNW,330,5.0,10.5,93,0.00,,---,0.00,VWS V12.08,2013-07-11 15:43:00,
2013-07-11 11:48:00,79.9,70.1,29.84,WNW,300,7.8,13.9,72,28.12,,---,0.08,VWS V12.08,2013-07-11 15:48:00,
2013-07-11 11:53:00,44.7,38.6,29.74,West,266,10.4,15.9,79,0.00,,---,0.00,VWS V12.08,2013-07-11 15:53:00,
2013-07-11 11:58:00,36.9,28.2,29.94,SSW,212,6.6,17.4,70,0.00,,---,0.00,VWS V12.08,2013-07-11 15:58:00,
2013-07-11 12:03:00,44.8,38.8,29.74,West,267,7.5,17.2,79,0.00,,---,0.00,VWS V12.08,2013-07-11 16:03:00,
2013-07-11 12:08:00,39.6,39.6,29.46,North,8,15.7,30.4,100,1.42,,---,1.42,VWS V12.08,2013-07-11 16:08:00,
2013-07-11 12:13:00,80.2,69.9,29.84,NNW,340,3.0,13.9,71,28.12,,---,0.08,VWS V12.08,2013-07-11 16:13:00,
2013-07-11 12:18:00,80.3,69.8,29.84,North,350,5.5,13.9,70,28.12,,---,0.08,VWS V12.08,2013-07-11 16:18:00,
2013-07-11 12:23:00,30.5,26.2,29.83,NW,315,11.4,25.4,84,0.88,,---,0.84,VWS V12.08,2013-07-11 16:23:00,
2013-07-11 12:28:00,80.4,69.9,29.84,WNW,302,5.1,13.9,70,28.12,,---,0.08,VWS V12.08,2013-07-11 16:28:00,
2013-07-11 12:33:00,80.5,70.0,29.84,NW,314,5.9,0.0,70,28.12,,---,0.08,VWS V12.08,2013-07-11 16:33:00,
2013-07-11 12:38:00,36.3,26.9,29.93,WNW,297,4.7,21.4,68,0.00,,---,0.00,VWS V12.08,2013-07-11 16:38:00,
2013-07-11 12:44:00,36.0,26.8,29.93,West,263,2.1,12.0,69,0.00,,---,0.00,VWS V12.08,2013-07-11 16:44:00,
2013-07-11 12:49:00,44.5,38.0,29.74,WNW,298,11.1,15.2,78,0.00,,---,0.00,VWS V12.08,2013-07-11 16:49:00,
2013-07-11 12:54:00,80.4,69.9,29.85,NNW,330,5.9,13.9,70,28.12,,---,0.08,VWS V12.08,2013-07-11 16:54:00,
2013-07-11 12:59:00,81.0,70.7,29.85,NW,311,10.1,13.9,71,28.12,,---,0.08,VWS V12.08,2013-07-11 16:59:00,
2013-07-11 13:04:00,36.8,36.8,30.18,North,354,0.0,7.7,100,0.55,,---,0.55,VWS V12.08,2013-07-11 17:04:00,
2013-07-11 13:09:00,38.6,32.4,30.27,North,4,0.0,0.0,78,0.00,,---,0.00,VWS V12.08,2013-07-11 17:09:00,
2013-07-11 13:14:00,81.4,70.7,29.85,NNW,338,6.8,13.9,70,28.12,,---,0.08,VWS V12.08,2013-07-11 17:14:00,
2013-07-11 13:19:00,47.3,47.3,30.23,NW,322,0.0,5.5,100,0.00,,---,0.00,VWS V12.08,2013-07-11 17:19:00,
2013-07-11 13:24:00,81.7,70.5,29.85,North,352,8.3,13.9,69,28.12,,---,0.08,VWS V12.08,2013-07-11 17:24:00,
2013-07-11 13:30:00,45.4,40.4,30.17,ENE,68,0.0,0.0,82,0.00,,---,0.00,VWS V12.08,2013-07-11 17:30:00,
2013-07-11 13:35:00,81.8,70.5,29.84,North,4,0.0,13.9,69,28.12,,---,0.08,VWS V12.08,2013-07-11 17:35:00,
2013-07-11 13:40:00,43.2,39.8,30.11,North,359,5.2,6.1,88,0.00,,---,0.00,VWS V12.08,2013-07-11 17:40:00,
2013-07-11 13:45:00,44.4,40.6,29.62,WSW,239,13.3,18.0,86,0.54,,---,0.50,VWS V12.08,2013-07-11 17:45:00,
2013-07-11 13:50:00,37.7,35.5,29.32,West,280,6.8,13.3,92,1.03,,---,1.03,VWS V12.08,2013-07-11 17:50:00,
2013-07-11 13:55:00,82.5,70.6,29.84,West,277,4.8,13.9,67,28.12,,---,0.08,VWS V12.08,2013-07-11 17:55:00,
2013-07-11 14:00:00,82.9,70.7,29.84,North,349,6.2,13.9,67,28.12,,---,0.08,VWS V12.08,2013-07-11 18:00:00,
2013-07-11 14:05:00,45.7,38.4,29.73,West,277,13.4,17.9,75,0.00,,---,0.00,VWS V12.08,2013-07-11 18:05:00,
2013-07-11 14:10:00,33.7,32.0,30.29,NE,38,0.0,0.0,93,0.00,,---,0.00,VWS V12.08,2013-07-11 18:10:00,
2013-07-11 14:15:00,84.2,70.4,29.84,NNW,329,9.9,13.9,63,28.12,,---,0.08,VWS V12.08,2013-07-11 18:15:00,
2013-07-11 14:20:00,46.3,38.0,29.72,WSW,253,14.3,21.3,73,0.00,,---,0.00,VWS V12.08,2013-07-11 18:20:00,
2013-07-11 14:25:00,40.8,40.8,30.39,NW,304,3.3,16.2,100,0.00,,---,0.00,VWS V12.08,2013-07-11 18:25:00,
2013-07-11 14:30:00,84.4,69.9,29.83,West,259,5.0,13.9,62,28.12,,---,0.08,VWS V12.08,2013-07-11 18:30:00,
2013-07-11 14:35:00,32.5,32.5,29.58,WNW,300,9.3,17.1,100,0.00,,---,0.00,VWS V12.08,2013-07-11 18:35:00,
2013-07-11 14:40:00,42.6,37.9,29.75,WSW,250,0.0,11.9,83,0.00,,---,0.00,VWS V12.08,2013-07-11 18:40:00,
2013-07-11 14:45:00,84.5,69.5,29.83,North,359,6.2,13.9,61,28.12,,---,0.08,VWS V12.08,2013-07-11 18:45:00,
2013-07-11 14:51:00,42.5,37.6,29.96,West,260,5.5,13.0,83,0.00,,---,0.00,VWS V12.08,2013-07-11 18:51:00,
2013-07-11 14:56:00,45.0,45.0,29.59,NNE,17,6.0,16.0,100,1.01,,---,0.35,VWS V12.08,2013-07-11 18:56:00,
2013-07-11 15:01:00,49.6,48.3,29.65,SE,124,5.3,15.3,95,0.00,,---,0.00,VWS V12.08,2013-07-11 19:01:00,
2013-07-11 15:06:00,85.0,68.5,29.83,West,277,4.9,13.9,58,28.12,,---,0.08,VWS V12.08,2013-07-11 19:06:00,
2013-07-11 15:11:00,37.1,28.4,30.05,West,260,1.3,13.2,70,0.00,,---,0.00,VWS V12.08,2013-07-11 19:11:00,
2013-07-11 15:16:00,85.0,67.7,29.83,WNW,287,5.3,0.0,56,28.12,,---,0.08,VWS V12.08,2013-07-11 19:16:00,
2013-07-11 15:21:00,35.2,29.5,30.25,SSW,194,6.2,21.6,79,0.59,,---,0.03,VWS V12.08,2013-07-11 19:21:00,
2013-07-11 15:26:00,84.6,67.9,29.83,NNE,27,0.0,13.9,57,28.12,,---,0.08,VWS V12.08,2013-07-11 19:26:00,
2013-07-11 15:31:00,84.5,67.9,29.83,WNW,294,0.0,13.9,58,28.12,,---,0.08,VWS V12.08,2013-07-11 19:31:00,
2013-07-11 15:36:00,84.7,68.4,29.83,WSW,248,3.0,13.9,58,28.12,,---,0.08,VWS V12.08,2013-07-11 19:36:00,
2013-07-11 15:41:00,84.5,68.3,29.82,NNW,340,6.0,0.0,58,28.12,,---,0.08,VWS V12.08,2013-07-11 19:41:00,
2013-07-11 15:46:00,84.5,68.1,29.82,NNE,22,3.0,13.9,58,28.12,,---,0.08,VWS V12.08,2013-07-11 19:46:00,
2013-07-11 15:51:00,40.7,40.7,30.39,NNW,328,4.3,6.5,100,0.00,,---,0.00,VWS V12.08,2013-07-11 19:51:00,
2013-07-11 15:56:00,84.6,68.8,29.82,NNW,332,4.8,13.9,59,28.12,,---,0.08,VWS V12.08,2013-07-11 19:56:00,
2013-07-11 16:01:00,84.8,69.2,29.82,WNW,291,0.0,13.9,60,28.12,,---,0.08,VWS V12.08,2013-07-11 20:01:00,
2013-07-11 16:06:00,33.4,26.7,30.17,North,0,0.0,6.5,76,0.00,,---,0.00,VWS V12.08,2013-07-11 20:06:00,
2013-07-11 16:11:00,84.6,68.8,29.82,NNW,343,9.9,0.0,59,28.12,,---,0.08,VWS V12.08,2013-07-11 20:11:00,
2013-07-11 16:17:00,36.7,23.7,29.83,West,259,8.8,15.3,59,0.00,,---,0.00,VWS V12.08,2013-07-11 20:17:00,
2013-07-11 16:22:00,85.2,69.3,29.82,WNW,292,6.5,13.9,59,28.12,,---,0.08,VWS V12.08,2013-07-11 20:22:00,
2013-07-11 16:27:00,28.2,22.4,30.17,SW,225,3.5,7.8,78,0.03,,---,0.03,VWS V12.08,2013-07-11 20:27:00,
2013-07-11 16:32:00,44.5,40.9,29.61,West,280,8.8,26.0,87,0.94,,---,0.50,VWS V12.08,2013-07-11 20:32:00,
2013-07-11 16:37:00,85.0,68.1,29.82,North,3,4.8,13.9,57,28.12,,---,0.08,VWS V12.08,2013-07-11 20:37:00,
2013-07-11 16:42:00,84.9,67.9,29.82,WSW,257,8.3,13.9,57,28.12,,---,0.08,VWS V12.08,2013-07-11 20:42:00,
2013-07-11 16:47:00,84.8,67.5,29.82,SW,217,4.8,0.0,56,28.12,,---,0.08,VWS V12.08,2013-07-11 20:47:00,
2013-07-11 16:52:00,40.7,36.0,30.19,NNW,329,5.5,7.7,83,0.05,,---,0.05,VWS V12.08,2013-07-11 20:52:00,
2013-07-11 16:57:00,33.4,31.8,30.30,NE,38,0.0,0.0,94,0.00,,---,0.00,VWS V12.08,2013-07-11 20:57:00,
2013-07-11 17:02:00,84.8,65.5,29.82,West,271,3.4,13.9,52,28.12,,---,0.08,VWS V12.08,2013-07-11 21:02:00,
2013-07-11 17:07:00,42.7,37.6,29.75,NW,307,9.3,16.6,82,0.00,,---,0.00,VWS V12.08,2013-07-11 21:07:00,
2013-07-11 17:13:00,84.6,65.3,29.82,WSW,256,5.2,13.9,52,28.12,,---,0.08,VWS V12.08,2013-07-11 21:13:00,
2013-07-11 17:17:00,84.5,65.2,29.82,North,353,4.2,13.9,52,28.12,,---,0.08,VWS V12.08,2013-07-11 21:17:00,
2013-07-11 17:23:00,42.5,37.6,29.96,West,260,5.5,13.0,83,0.00,,---,0.00,VWS V12.08,2013-07-11 21:23:00,
2013-07-11 17:28:00,84.3,66.2,29.82,WNW,300,5.5,13.9,55,28.12,,---,0.08,VWS V12.08,2013-07-11 21:28:00,
2013-07-11 17:33:00,84.0,66.4,29.82,NW,315,6.0,13.9,56,28.12,,---,0.08,VWS V12.08,2013-07-11 21:33:00,
2013-07-11 17:38:00,84.0,66.1,29.83,North,4,0.0,13.9,55,28.12,,---,0.08,VWS V12.08,2013-07-11 21:38:00,
2013-07-11 17:43:00,46.6,38.0,29.71,West,276,17.2,18.0,72,0.00,,---,0.00,VWS V12.08,2013-07-11 21:43:00,
2013-07-11 17:48:00,37.9,32.4,30.20,SSW,208,0.0,15.5,80,0.00,,---,0.00,VWS V12.08,2013-07-11 21:48:00,
2013-07-11 17:53:00,84.7,67.2,29.83,West,262,0.0,13.9,56,28.12,,---,0.08,VWS V12.08,2013-07-11 21:53:00,
2013-07-11 17:58:00,45.6,43.6,30.39,South,170,0.0,0.0,93,0.00,,---,0.00,VWS V12.08,2013-07-11 21:58:00,
2013-07-11 18:03:00,41.2,41.2,30.10,South,173,0.0,11.1,100,0.00,,---,0.00,VWS V12.08,2013-07-11 22:03:00,
2013-07-11 18:08:00,83.9,66.5,29.83,WSW,255,0.0,13.9,56,28.12,,---,0.08,VWS V12.08,2013-07-11 22:08:00,
2013-07-11 18:13:00,84.2,66.5,29.84,WNW,298,8.5,13.9,55,28.12,,---,0.08,VWS V12.08,2013-07-11 22:13:00,
2013-07-11 18:19:00,36.2,28.8,30.23,WNW,295,0.0,22.9,74,0.00,,---,0.00,VWS V12.08,2013-07-11 22:19:00,
2013-07-11 18:24:00,49.4,48.1,29.64,SW,214,1.6,8.3,95,0.00,,---,0.00,VWS V12.08,2013-07-11 22:24:00,
2013-07-11 18:29:00,83.6,65.9,29.84,West,263,8.1,13.9,55,28.12,,---,0.08,VWS V12.08,2013-07-11 22:29:00,
2013-07-11 18:34:00,39.1,36.7,30.42,NNE,21,5.8,15.4,91,0.00,,---,0.00,VWS V12.08,2013-07-11 22:34:00,
2013-07-11 18:39:00,83.9,66.2,29.84,NW,305,7.5,13.9,55,28.12,,---,0.08,VWS V12.08,2013-07-11 22:39:00,
2013-07-11 18:44:00,40.3,36.0,30.42,NNW,333,0.0,30.7,84,0.11,,---,0.11,VWS V12.08,2013-07-11 22:44:00,
2013-07-11 18:49:00,83.5,65.3,29.85,NW,321,8.7,13.9,54,28.12,,---,0.08,VWS V12.08,2013-07-11 22:49:00,
2013-07-11 18:54:00,32.4,32.1,29.58,WNW,298,9.2,24.0,99,0.00,,---,0.00,VWS V12.08,2013-07-11 22:54:00,
2013-07-11 18:59:00,82.9,64.1,29.85,NNW,330,6.7,13.9,53,28.12,,---,0.08,VWS V12.08,2013-07-11 22:59:00,
2013-07-11 19:04:00,35.5,27.5,30.22,North,359,5.6,17.0,72,0.01,,---,0.01,VWS V12.08,2013-07-11 23:04:00,
2013-07-11 19:09:00,37.2,32.8,30.42,NNE,18,3.2,9.1,84,0.00,,---,0.00,VWS V12.08,2013-07-11 23:09:00,
2013-07-11 19:14:00,82.4,64.1,29.85,NW,305,9.1,13.9,54,28.12,,---,0.08,VWS V12.08,2013-07-11 23:14:00,
2013-07-11 19:19:00,82.3,64.0,29.85,NNW,332,6.3,13.9,54,28.12,,---,0.08,VWS V12.08,2013-07-11 23:19:00,
2013-07-11 19:24:00,41.2,41.2,30.10,South,173,0.0,11.1,100,0.00,,---,0.00,VWS V12.08,2013-07-11 23:24:00,
2013-07-11 19:29:00,40.2,35.9,30.60,North,353,5.0,16.1,84,0.00,,---,0.00,VWS V12.08,2013-07-11 23:29:00,
2013-07-11 19:35:00,37.5,31.1,30.43,NW,316,5.0,24.0,77,0.11,,---,0.00,VWS V12.08,2013-07-11 23:35:00,
2013-07-11 19:40:00,81.5,64.6,29.86,NNW,346,7.1,13.9,57,28.12,,---,0.08,VWS V12.08,2013-07-11 23:40:00,
2013-07-11 19:45:00,46.6,38.0,29.71,West,276,17.2,18.0,72,0.00,,---,0.00,VWS V12.08,2013-07-11 23:45:00,
2013-07-11 19:50:00,42.7,37.6,29.75,NW,307,9.3,16.6,82,0.00,,---,0.00,VWS V12.08,2013-07-11 23:50:00,
2013-07-11 19:55:00,37.2,32.8,30.42,NNE,18,3.2,9.1,84,0.00,,---,0.00,VWS V12.08,2013-07-11 23:55:00,
2013-07-11 20:00:00,42.0,38.4,30.18,SW,231,0.0,0.0,87,0.00,,---,0.00,VWS V12.08,2013-07-12 00:00:00,
2013-07-11 20:05:00,57.1,57.1,29.55,West,264,0.0,9.9,100,0.30,,---,0.03,VWS V12.08,2013-07-12 00:05:00,
2013-07-11 20:10:00,44.7,38.6,29.74,West,266,10.4,15.9,79,0.00,,---,0.00,VWS V12.08,2013-07-12 00:10:00,
2013-07-11 20:15:00,43.1,40.1,30.12,NNW,342,0.0,10.8,89,0.00,,---,0.00,VWS V12.08,2013-07-12 00:15:00,
2013-07-11 20:20:00,80.3,65.9,29.87,NW,308,5.7,13.9,62,28.12,,---,0.08,VWS V12.08,2013-07-12 00:20:00,
2013-07-11 20:26:00,40.8,40.8,30.39,NW,304,3.3,16.2,100,0.00,,---,0.00,VWS V12.08,2013-07-12 00:26:00,
2013-07-11 20:31:00,33.3,33.3,29.77,NNW,328,0.0,24.4,100,0.22,,---,0.22,VWS V12.08,2013-07-12 00:31:00,
2013-07-11 20:36:00,46.6,38.0,29.71,West,276,17.2,18.0,72,0.00,,---,0.00,VWS V12.08,2013-07-12 00:36:00,
2013-07-11 20:41:00,30.1,25.8,29.83,West,266,20.9,38.0,84,2.30,,---,0.84,VWS V12.08,2013-07-12 00:41:00,
2013-07-11 20:46:00,33.0,31.3,30.22,NNE,30,0.0,20.3,94,0.18,,---,0.06,VWS V12.08,2013-07-12 00:46:00,
2013-07-11 20:51:00,79.2,66.2,29.87,NW,311,5.5,13.9,64,28.12,,---,0.08,VWS V12.08,2013-07-12 00:51:00,
2013-07-11 20:56:00,45.2,38.5,29.73,WNW,283,10.8,19.6,77,0.00,,---,0.00,VWS V12.08,2013-07-12 00:56:00,
2013-07-11 21:01:00,45.2,45.2,29.57,NNE,13,6.3,9.5,100,0.40,,---,0.39,VWS V12.08,2013-07-12 01:01:00,
2013-07-11 21:06:00,79.0,66.5,29.88,West,281,0.0,13.9,66,28.12,,---,0.08,VWS V12.08,2013-07-12 01:06:00,
2013-07-11 21:11:00,45.2,38.5,29.73,WNW,283,10.8,19.6,77,0.00,,---,0.00,VWS V12.08,2013-07-12 01:11:00,
2013-07-11 21:16:00,78.9,66.7,29.88,NW,322,7.0,13.9,66,28.12,,---,0.08,VWS V12.08,2013-07-12 01:16:00,
2013-07-11 21:22:00,41.4,39.5,30.53,North,10,5.1,13.7,93,0.00,,---,0.00,VWS V12.08,2013-07-12 01:22:00,
2013-07-11 21:27:00,78.5,66.5,29.89,North,359,0.0,13.9,67,28.12,,---,0.08,VWS V12.08,2013-07-12 01:27:00,
2013-07-11 21:32:00,78.3,66.4,29.89,NE,44,0.0,13.9,67,28.12,,---,0.08,VWS V12.08,2013-07-12 01:32:00,
2013-07-11 21:37:00,78.7,67.0,29.89,NE,48,2.8,13.9,67,28.12,,---,0.08,VWS V12.08,2013-07-12 01:37:00,
2013-07-11 21:42:00,46.6,38.0,29.71,West,276,17.2,18.0,72,0.00,,---,0.00,VWS V12.08,2013-07-12 01:42:00,
2013-07-11 21:47:00,40.2,35.9,30.60,North,353,5.0,16.1,84,0.00,,---,0.00,VWS V12.08,2013-07-12 01:47:00,
2013-07-11 21:52:00,29.1,27.7,30.03,WNW,291,0.0,30.0,94,0.88,,---,0.00,VWS V12.08,2013-07-12 01:52:00,
2013-07-11 21:57:00,77.9,67.5,29.89,NNE,15,0.0,13.9,70,28.12,,---,0.08,VWS V12.08,2013-07-12 01:57:00,
2013-07-11 22:02:00,78.3,68.0,29.89,NNW,342,3.4,0.0,71,28.12,,---,0.08,VWS V12.08,2013-07-12 02:02:00,
2013-07-11 22:07:00,39.3,32.1,30.12,WNW,297,4.8,10.8,75,0.00,,---,0.00,VWS V12.08,2013-07-12 02:07:00,
2013-07-11 22:12:00,78.3,67.9,29.89,North,7,0.0,13.9,70,28.12,,---,0.08,VWS V12.08,2013-07-12 02:12:00,
2013-07-11 22:17:00,29.1,27.7,30.03,WNW,291,0.0,30.0,94,0.88,,---,0.00,VWS V12.08,2013-07-12 02:17:00,
2013-07-11 22:22:00,45.8,38.0,29.72,NW,326,12.3,22.6,74,0.00,,---,0.00,VWS V12.08,2013-07-12 02:22:00,
2013-07-11 22:27:00,43.5,38.3,29.75,West,271,5.9,18.0,82,0.00,,---,0.00,VWS V12.08,2013-07-12 02:27:00,
2013-07-11 22:32:00,37.4,31.2,30.43,WNW,302,0.0,7.8,78,0.00,,---,0.00,VWS V12.08,2013-07-12 02:32:00,
2013-07-11 22:37:00,44.8,38.8,29.74,West,267,7.5,17.2,79,0.00,,---,0.00,VWS V12.08,2013-07-12 02:37:00,
2013-07-11 22:43:00,77.8,66.9,29.89,North,10,4.3,13.9,69,28.12,,---,0.08,VWS V12.08,2013-07-12 02:43:00,
2013-07-11 22:48:00,77.7,66.6,29.89,North,359,4.5,13.9,69,28.12,,---,0.08,VWS V12.08,2013-07-12 02:48:00,
2013-07-11 22:53:00,77.3,66.1,29.89,NE,42,5.5,0.0,68,28.12,,---,0.08,VWS V12.08,2013-07-12 02:53:00,
2013-07-11 22:58:00,77.4,66.2,29.89,NE,44,7.9,13.9,68,28.12,,---,0.08,VWS V12.08,2013-07-12 02:58:00,
2013-07-11 23:03:00,36.6,36.6,30.19,North,4,0.0,12.4,100,0.55,,---,0.55,VWS V12.08,2013-07-12 03:03:00,
2013-07-11 23:08:00,37.5,31.1,30.43,NW,316,5.0,24.0,77,0.11,,---,0.00,VWS V12.08,2013-07-12 03:08:00,
2013-07-11 23:13:00,36.7,28.2,30.04,North,359,6.6,12.1,71,0.00,,---,0.00,VWS V12.08,2013-07-12 03:13:00,
2013-07-11 23:18:00,76.7,65.7,29.89,NW,311,0.0,13.9,69,28.12,,---,0.08,VWS V12.08,2013-07-12 03:18:00,
2013-07-11 23:23:00,37.2,32.8,30.42,NNW,339,5.8,15.9,84,0.00,,---,0.00,VWS V12.08,2013-07-12 03:23:00,
2013-07-11 23:28:00,76.7,65.8,29.89,North,10,4.6,13.9,69,28.12,,---,0.08,VWS V12.08,2013-07-12 03:28:00,
2013-07-11 23:33:00,47.3,47.3,30.23,NW,322,0.0,5.5,100,0.00,,---,0.00,VWS V12.08,2013-07-12 03:33:00,
2013-07-11 23:38:00,76.6,65.9,29.89,North,8,2.5,13.9,70,28.12,,---,0.08,VWS V12.08,2013-07-12 03:38:00,
2013-07-11 23:43:00,76.8,66.2,29.89,NE,39,0.0,0.0,70,28.12,,---,0.08,VWS V12.08,2013-07-12 03:43:00,
2013-07-11 23:48:00,76.4,65.9,29.89,NE,37,0.0,0.0,70,28.12,,---,0.08,VWS V12.08,2013-07-12 03:48:00,
2013-07-11 23:53:00,76.6,66.3,29.89,NE,37,0.0,0.0,70,28.12,,---,0.08,VWS V12.08,2013-07-12 03:53:00,
2013-07-11 23:58:00,39.9,35.8,30.61,NW,322,0.0,6.6,85,0.00,,---,0.00,VWS V12.08,2013-07-12 03:58:00,